sensor_id;sensor_type;location;lat;lon;timestamp;P1;durP1;ratioP1;P2;durP2;ratioP2
20144;SDS011;10233;50.814;6.590;2023-08-08T00:00:12;2.37;;;1.43;;
20144;SDS011;10233;50.814;6.590;2023-08-08T00:01:13;2.72;;;1.20;;
20144;SDS011;10233;50.814;6.590;2023-08-08T00:02:14;2.20;;;1.40;;
20144;SDS011;10233;50.814;6.590;2023-08-08T00:03:14;2.30;;;1.40;;
20144;SDS011;10233;50.814;6.590;2023-08-08T00:04:15;2.03;;;1.30;;
20144;SDS011;10233;50.814;6.590;2023-08-08T00:05:15;2.80;;;1.43;;
20144;SDS011;10233;50.814;6.590;2023-08-08T00:06:16;4.87;;;1.40;;
20144;SDS011;10233;50.814;6.590;2023-08-08T00:07:16;3.05;;;1.40;;
20144;SDS011;10233;50.814;6.590;2023-08-08T00:08:17;2.43;;;1.13;;
20144;SDS011;10233;50.814;6.590;2023-08-08T00:09:17;2.72;;;1.30;;
20144;SDS011;10233;50.814;6.590;2023-08-08T00:10:18;2.23;;;1.30;;
20144;SDS011;10233;50.814;6.590;2023-08-08T00:11:18;3.23;;;1.40;;
20144;SDS011;10233;50.814;6.590;2023-08-08T00:12:19;1.92;;;1.30;;
20144;SDS011;10233;50.814;6.590;2023-08-08T00:13:19;4.53;;;1.47;;
20144;SDS011;10233;50.814;6.590;2023-08-08T00:14:21;3.13;;;1.50;;
20144;SDS011;10233;50.814;6.590;2023-08-08T00:15:21;3.80;;;1.60;;
20144;SDS011;10233;50.814;6.590;2023-08-08T00:16:22;2.90;;;1.40;;
20144;SDS011;10233;50.814;6.590;2023-08-08T00:17:23;3.38;;;1.50;;
20144;SDS011;10233;50.814;6.590;2023-08-08T00:18:23;4.57;;;1.57;;
20144;SDS011;10233;50.814;6.590;2023-08-08T00:19:24;3.83;;;1.50;;
20144;SDS011;10233;50.814;6.590;2023-08-08T00:20:24;2.38;;;1.60;;
20144;SDS011;10233;50.814;6.590;2023-08-08T00:21:25;3.13;;;1.40;;
20144;SDS011;10233;50.814;6.590;2023-08-08T00:22:25;2.95;;;1.50;;
20144;SDS011;10233;50.814;6.590;2023-08-08T00:23:25;2.73;;;1.60;;
20144;SDS011;10233;50.814;6.590;2023-08-08T00:24:26;2.07;;;1.53;;
20144;SDS011;10233;50.814;6.590;2023-08-08T00:25:26;3.97;;;1.80;;
20144;SDS011;10233;50.814;6.590;2023-08-08T00:26:27;2.33;;;1.50;;
20144;SDS011;10233;50.814;6.590;2023-08-08T00:27:28;2.42;;;1.40;;
20144;SDS011;10233;50.814;6.590;2023-08-08T00:28:28;3.00;;;1.50;;
20144;SDS011;10233;50.814;6.590;2023-08-08T00:29:29;2.87;;;1.60;;
20144;SDS011;10233;50.814;6.590;2023-08-08T00:30:29;5.17;;;1.70;;
20144;SDS011;10233;50.814;6.590;2023-08-08T00:31:29;2.40;;;1.70;;
20144;SDS011;10233;50.814;6.590;2023-08-08T00:32:30;3.07;;;1.60;;
20144;SDS011;10233;50.814;6.590;2023-08-08T00:33:31;3.55;;;1.50;;
20144;SDS011;10233;50.814;6.590;2023-08-08T00:34:33;2.45;;;1.50;;
20144;SDS011;10233;50.814;6.590;2023-08-08T00:35:33;4.60;;;1.60;;
20144;SDS011;10233;50.814;6.590;2023-08-08T00:36:33;5.43;;;1.60;;
20144;SDS011;10233;50.814;6.590;2023-08-08T00:37:34;2.70;;;1.52;;
20144;SDS011;10233;50.814;6.590;2023-08-08T00:38:34;2.33;;;1.33;;
20144;SDS011;10233;50.814;6.590;2023-08-08T00:39:35;2.85;;;1.60;;
20144;SDS011;10233;50.814;6.590;2023-08-08T00:40:35;2.33;;;1.53;;
20144;SDS011;10233;50.814;6.590;2023-08-08T00:41:36;2.30;;;1.70;;
20144;SDS011;10233;50.814;6.590;2023-08-08T00:42:36;2.30;;;1.40;;
20144;SDS011;10233;50.814;6.590;2023-08-08T00:43:37;2.20;;;1.50;;
20144;SDS011;10233;50.814;6.590;2023-08-08T00:44:38;3.50;;;1.50;;
20144;SDS011;10233;50.814;6.590;2023-08-08T00:45:42;2.40;;;1.47;;
20144;SDS011;10233;50.814;6.590;2023-08-08T00:46:43;2.30;;;1.38;;
20144;SDS011;10233;50.814;6.590;2023-08-08T00:47:45;2.75;;;1.40;;
20144;SDS011;10233;50.814;6.590;2023-08-08T00:48:46;3.78;;;1.50;;
20144;SDS011;10233;50.814;6.590;2023-08-08T00:49:47;2.15;;;1.40;;
20144;SDS011;10233;50.814;6.590;2023-08-08T00:50:48;3.60;;;1.40;;
20144;SDS011;10233;50.814;6.590;2023-08-08T00:51:50;2.40;;;1.30;;
20144;SDS011;10233;50.814;6.590;2023-08-08T00:52:51;3.40;;;1.30;;
20144;SDS011;10233;50.814;6.590;2023-08-08T00:53:52;2.00;;;1.27;;
20144;SDS011;10233;50.814;6.590;2023-08-08T00:54:54;4.20;;;1.60;;
20144;SDS011;10233;50.814;6.590;2023-08-08T00:55:55;2.97;;;1.40;;
20144;SDS011;10233;50.814;6.590;2023-08-08T00:56:56;1.70;;;1.30;;
20144;SDS011;10233;50.814;6.590;2023-08-08T00:57:56;2.50;;;1.48;;
20144;SDS011;10233;50.814;6.590;2023-08-08T00:58:57;2.80;;;1.40;;
20144;SDS011;10233;50.814;6.590;2023-08-08T00:59:57;2.28;;;1.20;;
20144;SDS011;10233;50.814;6.590;2023-08-08T01:00:58;2.13;;;1.20;;
20144;SDS011;10233;50.814;6.590;2023-08-08T01:02:00;3.95;;;1.50;;
20144;SDS011;10233;50.814;6.590;2023-08-08T01:03:00;3.20;;;1.50;;
20144;SDS011;10233;50.814;6.590;2023-08-08T01:04:01;1.60;;;1.03;;
20144;SDS011;10233;50.814;6.590;2023-08-08T01:05:02;4.43;;;1.40;;
20144;SDS011;10233;50.814;6.590;2023-08-08T01:06:05;1.73;;;1.27;;
20144;SDS011;10233;50.814;6.590;2023-08-08T01:07:24;2.53;;;1.35;;
20144;SDS011;10233;50.814;6.590;2023-08-08T01:08:33;4.70;;;1.65;;
20144;SDS011;10233;50.814;6.590;2023-08-08T01:09:41;2.08;;;1.40;;
20144;SDS011;10233;50.814;6.590;2023-08-08T01:10:56;3.92;;;1.45;;
20144;SDS011;10233;50.814;6.590;2023-08-08T01:11:58;4.13;;;1.50;;
20144;SDS011;10233;50.814;6.590;2023-08-08T01:13:09;2.38;;;1.30;;
20144;SDS011;10233;50.814;6.590;2023-08-08T01:14:14;2.45;;;1.30;;
20144;SDS011;10233;50.814;6.590;2023-08-08T01:15:16;2.30;;;1.35;;
20144;SDS011;10233;50.814;6.590;2023-08-08T01:16:19;4.65;;;1.40;;
20144;SDS011;10233;50.814;6.590;2023-08-08T01:17:21;3.57;;;1.23;;
20144;SDS011;10233;50.814;6.590;2023-08-08T01:18:22;1.80;;;1.20;;
20144;SDS011;10233;50.814;6.590;2023-08-08T01:19:32;3.10;;;1.47;;
20144;SDS011;10233;50.814;6.590;2023-08-08T01:20:35;3.25;;;1.20;;
20144;SDS011;10233;50.814;6.590;2023-08-08T01:21:37;2.50;;;1.35;;
20144;SDS011;10233;50.814;6.590;2023-08-08T01:22:50;1.83;;;1.27;;
20144;SDS011;10233;50.814;6.590;2023-08-08T01:24:14;2.50;;;1.30;;
20144;SDS011;10233;50.814;6.590;2023-08-08T01:25:18;5.18;;;1.42;;
20144;SDS011;10233;50.814;6.590;2023-08-08T01:26:20;2.05;;;1.30;;
20144;SDS011;10233;50.814;6.590;2023-08-08T01:27:22;2.38;;;1.27;;
20144;SDS011;10233;50.814;6.590;2023-08-08T01:28:23;2.00;;;1.23;;
20144;SDS011;10233;50.814;6.590;2023-08-08T01:29:27;3.70;;;1.45;;
20144;SDS011;10233;50.814;6.590;2023-08-08T01:30:30;2.97;;;1.33;;
20144;SDS011;10233;50.814;6.590;2023-08-08T01:31:31;2.50;;;1.30;;
20144;SDS011;10233;50.814;6.590;2023-08-08T01:32:31;3.50;;;1.57;;
20144;SDS011;10233;50.814;6.590;2023-08-08T01:33:32;2.93;;;1.63;;
20144;SDS011;10233;50.814;6.590;2023-08-08T01:34:32;4.57;;;1.48;;
20144;SDS011;10233;50.814;6.590;2023-08-08T01:35:34;3.37;;;1.40;;
20144;SDS011;10233;50.814;6.590;2023-08-08T01:36:44;2.55;;;1.30;;
20144;SDS011;10233;50.814;6.590;2023-08-08T01:37:50;3.28;;;1.50;;
20144;SDS011;10233;50.814;6.590;2023-08-08T01:38:54;4.13;;;1.40;;
20144;SDS011;10233;50.814;6.590;2023-08-08T01:40:04;3.38;;;1.50;;
20144;SDS011;10233;50.814;6.590;2023-08-08T01:41:06;2.75;;;1.63;;
20144;SDS011;10233;50.814;6.590;2023-08-08T01:42:07;2.53;;;1.30;;
20144;SDS011;10233;50.814;6.590;2023-08-08T01:43:14;3.75;;;1.35;;
20144;SDS011;10233;50.814;6.590;2023-08-08T01:44:15;2.42;;;1.38;;
20144;SDS011;10233;50.814;6.590;2023-08-08T01:45:18;4.18;;;1.40;;
20144;SDS011;10233;50.814;6.590;2023-08-08T01:46:20;7.50;;;1.50;;
20144;SDS011;10233;50.814;6.590;2023-08-08T01:47:21;3.83;;;1.48;;
20144;SDS011;10233;50.814;6.590;2023-08-08T01:48:21;5.87;;;1.53;;
20144;SDS011;10233;50.814;6.590;2023-08-08T01:49:22;3.55;;;1.30;;
20144;SDS011;10233;50.814;6.590;2023-08-08T01:50:23;2.17;;;1.33;;
20144;SDS011;10233;50.814;6.590;2023-08-08T01:51:25;2.80;;;1.23;;
20144;SDS011;10233;50.814;6.590;2023-08-08T01:52:26;3.45;;;1.48;;
20144;SDS011;10233;50.814;6.590;2023-08-08T01:53:27;2.80;;;1.30;;
20144;SDS011;10233;50.814;6.590;2023-08-08T01:54:27;3.10;;;1.13;;
20144;SDS011;10233;50.814;6.590;2023-08-08T01:55:29;4.05;;;1.35;;
20144;SDS011;10233;50.814;6.590;2023-08-08T01:56:30;1.67;;;1.20;;
20144;SDS011;10233;50.814;6.590;2023-08-08T01:57:30;3.10;;;1.30;;
20144;SDS011;10233;50.814;6.590;2023-08-08T01:58:33;4.15;;;1.42;;
20144;SDS011;10233;50.814;6.590;2023-08-08T01:59:33;4.03;;;1.20;;
20144;SDS011;10233;50.814;6.590;2023-08-08T02:00:34;2.53;;;1.37;;
20144;SDS011;10233;50.814;6.590;2023-08-08T02:01:34;1.60;;;1.20;;
20144;SDS011;10233;50.814;6.590;2023-08-08T02:02:35;2.17;;;1.40;;
20144;SDS011;10233;50.814;6.590;2023-08-08T02:03:35;3.13;;;1.27;;
20144;SDS011;10233;50.814;6.590;2023-08-08T02:04:36;2.70;;;1.10;;
20144;SDS011;10233;50.814;6.590;2023-08-08T02:05:36;4.38;;;1.20;;
20144;SDS011;10233;50.814;6.590;2023-08-08T02:06:37;3.00;;;1.40;;
20144;SDS011;10233;50.814;6.590;2023-08-08T02:07:38;1.73;;;1.20;;
20144;SDS011;10233;50.814;6.590;2023-08-08T02:08:39;2.20;;;1.00;;
20144;SDS011;10233;50.814;6.590;2023-08-08T02:09:39;3.93;;;1.23;;
20144;SDS011;10233;50.814;6.590;2023-08-08T02:10:40;4.00;;;1.13;;
20144;SDS011;10233;50.814;6.590;2023-08-08T02:11:40;2.80;;;1.40;;
20144;SDS011;10233;50.814;6.590;2023-08-08T02:12:41;3.33;;;1.10;;
20144;SDS011;10233;50.814;6.590;2023-08-08T02:13:41;1.83;;;1.00;;
20144;SDS011;10233;50.814;6.590;2023-08-08T02:14:43;3.42;;;1.10;;
20144;SDS011;10233;50.814;6.590;2023-08-08T02:15:45;2.05;;;1.10;;
20144;SDS011;10233;50.814;6.590;2023-08-08T02:16:45;2.80;;;1.23;;
20144;SDS011;10233;50.814;6.590;2023-08-08T02:17:46;2.58;;;1.30;;
20144;SDS011;10233;50.814;6.590;2023-08-08T02:18:47;2.00;;;1.10;;
20144;SDS011;10233;50.814;6.590;2023-08-08T02:19:47;2.63;;;1.27;;
20144;SDS011;10233;50.814;6.590;2023-08-08T02:20:48;4.07;;;1.30;;
20144;SDS011;10233;50.814;6.590;2023-08-08T02:21:48;3.97;;;1.20;;
20144;SDS011;10233;50.814;6.590;2023-08-08T02:22:51;1.92;;;1.20;;
20144;SDS011;10233;50.814;6.590;2023-08-08T02:23:52;4.47;;;1.50;;
20144;SDS011;10233;50.814;6.590;2023-08-08T02:24:52;4.32;;;1.33;;
20144;SDS011;10233;50.814;6.590;2023-08-08T02:25:53;2.67;;;1.23;;
20144;SDS011;10233;50.814;6.590;2023-08-08T02:26:53;2.72;;;1.30;;
20144;SDS011;10233;50.814;6.590;2023-08-08T02:27:54;2.40;;;1.30;;
20144;SDS011;10233;50.814;6.590;2023-08-08T02:28:54;2.67;;;1.10;;
20144;SDS011;10233;50.814;6.590;2023-08-08T02:29:55;3.97;;;1.30;;
20144;SDS011;10233;50.814;6.590;2023-08-08T02:30:57;2.33;;;1.20;;
20144;SDS011;10233;50.814;6.590;2023-08-08T02:31:58;2.13;;;1.15;;
20144;SDS011;10233;50.814;6.590;2023-08-08T02:33:00;2.38;;;1.23;;
20144;SDS011;10233;50.814;6.590;2023-08-08T02:34:00;2.53;;;1.20;;
20144;SDS011;10233;50.814;6.590;2023-08-08T02:35:01;3.65;;;1.25;;
20144;SDS011;10233;50.814;6.590;2023-08-08T02:36:02;2.20;;;1.13;;
20144;SDS011;10233;50.814;6.590;2023-08-08T02:37:02;3.95;;;1.48;;
20144;SDS011;10233;50.814;6.590;2023-08-08T02:38:03;2.67;;;1.23;;
20144;SDS011;10233;50.814;6.590;2023-08-08T02:39:03;3.10;;;1.17;;
20144;SDS011;10233;50.814;6.590;2023-08-08T02:40:04;2.97;;;1.23;;
20144;SDS011;10233;50.814;6.590;2023-08-08T02:41:06;3.80;;;1.33;;
20144;SDS011;10233;50.814;6.590;2023-08-08T02:42:06;2.53;;;1.10;;
20144;SDS011;10233;50.814;6.590;2023-08-08T02:43:07;2.97;;;1.33;;
20144;SDS011;10233;50.814;6.590;2023-08-08T02:44:09;3.65;;;1.27;;
20144;SDS011;10233;50.814;6.590;2023-08-08T02:45:10;4.50;;;1.42;;
20144;SDS011;10233;50.814;6.590;2023-08-08T02:46:12;3.10;;;1.20;;
20144;SDS011;10233;50.814;6.590;2023-08-08T02:47:13;3.50;;;1.10;;
20144;SDS011;10233;50.814;6.590;2023-08-08T02:48:13;3.23;;;1.23;;
20144;SDS011;10233;50.814;6.590;2023-08-08T02:49:14;2.72;;;1.30;;
20144;SDS011;10233;50.814;6.590;2023-08-08T02:50:14;2.70;;;1.20;;
20144;SDS011;10233;50.814;6.590;2023-08-08T02:51:15;4.85;;;1.35;;
20144;SDS011;10233;50.814;6.590;2023-08-08T02:52:15;2.57;;;1.17;;
20144;SDS011;10233;50.814;6.590;2023-08-08T02:53:16;3.03;;;1.20;;
20144;SDS011;10233;50.814;6.590;2023-08-08T02:54:20;2.05;;;1.00;;
20144;SDS011;10233;50.814;6.590;2023-08-08T02:55:21;5.37;;;1.33;;
20144;SDS011;10233;50.814;6.590;2023-08-08T02:56:24;2.35;;;1.20;;
20144;SDS011;10233;50.814;6.590;2023-08-08T02:57:26;1.73;;;1.30;;
20144;SDS011;10233;50.814;6.590;2023-08-08T02:58:29;2.30;;;1.10;;
20144;SDS011;10233;50.814;6.590;2023-08-08T02:59:30;2.15;;;1.20;;
20144;SDS011;10233;50.814;6.590;2023-08-08T03:00:34;4.18;;;1.10;;
20144;SDS011;10233;50.814;6.590;2023-08-08T03:01:35;4.70;;;1.45;;
20144;SDS011;10233;50.814;6.590;2023-08-08T03:02:42;3.78;;;1.35;;
20144;SDS011;10233;50.814;6.590;2023-08-08T03:03:43;5.55;;;1.30;;
20144;SDS011;10233;50.814;6.590;2023-08-08T03:04:43;3.33;;;1.10;;
20144;SDS011;10233;50.814;6.590;2023-08-08T03:05:45;1.52;;;1.00;;
20144;SDS011;10233;50.814;6.590;2023-08-08T03:06:47;3.63;;;1.27;;
20144;SDS011;10233;50.814;6.590;2023-08-08T03:07:47;3.40;;;1.27;;
20144;SDS011;10233;50.814;6.590;2023-08-08T03:08:48;3.20;;;1.13;;
20144;SDS011;10233;50.814;6.590;2023-08-08T03:09:48;2.63;;;1.30;;
20144;SDS011;10233;50.814;6.590;2023-08-08T03:10:49;2.10;;;1.13;;
20144;SDS011;10233;50.814;6.590;2023-08-08T03:11:50;2.83;;;1.38;;
20144;SDS011;10233;50.814;6.590;2023-08-08T03:12:50;1.83;;;1.20;;
20144;SDS011;10233;50.814;6.590;2023-08-08T03:13:52;3.53;;;1.30;;
20144;SDS011;10233;50.814;6.590;2023-08-08T03:14:54;3.97;;;1.10;;
20144;SDS011;10233;50.814;6.590;2023-08-08T03:15:54;2.05;;;1.20;;
20144;SDS011;10233;50.814;6.590;2023-08-08T03:16:57;2.35;;;1.05;;
20144;SDS011;10233;50.814;6.590;2023-08-08T03:17:57;3.07;;;1.10;;
20144;SDS011;10233;50.814;6.590;2023-08-08T03:18:59;4.30;;;1.40;;
20144;SDS011;10233;50.814;6.590;2023-08-08T03:19:59;3.17;;;1.20;;
20144;SDS011;10233;50.814;6.590;2023-08-08T03:21:00;3.00;;;1.20;;
20144;SDS011;10233;50.814;6.590;2023-08-08T03:22:05;3.55;;;1.25;;
20144;SDS011;10233;50.814;6.590;2023-08-08T03:23:07;3.83;;;1.45;;
20144;SDS011;10233;50.814;6.590;2023-08-08T03:24:10;3.30;;;1.10;;
20144;SDS011;10233;50.814;6.590;2023-08-08T03:25:11;3.17;;;1.30;;
20144;SDS011;10233;50.814;6.590;2023-08-08T03:26:11;3.05;;;1.10;;
20144;SDS011;10233;50.814;6.590;2023-08-08T03:27:12;3.90;;;1.30;;
20144;SDS011;10233;50.814;6.590;2023-08-08T03:28:13;2.78;;;1.23;;
20144;SDS011;10233;50.814;6.590;2023-08-08T03:29:13;3.00;;;1.45;;
20144;SDS011;10233;50.814;6.590;2023-08-08T03:30:18;3.63;;;1.30;;
20144;SDS011;10233;50.814;6.590;2023-08-08T03:31:20;3.40;;;1.40;;
20144;SDS011;10233;50.814;6.590;2023-08-08T03:32:21;4.32;;;1.23;;
20144;SDS011;10233;50.814;6.590;2023-08-08T03:33:22;3.53;;;1.42;;
20144;SDS011;10233;50.814;6.590;2023-08-08T03:34:23;3.80;;;1.60;;
20144;SDS011;10233;50.814;6.590;2023-08-08T03:35:23;2.65;;;1.27;;
20144;SDS011;10233;50.814;6.590;2023-08-08T03:36:25;3.60;;;1.40;;
20144;SDS011;10233;50.814;6.590;2023-08-08T03:37:26;4.28;;;1.40;;
20144;SDS011;10233;50.814;6.590;2023-08-08T03:38:27;3.78;;;1.20;;
20144;SDS011;10233;50.814;6.590;2023-08-08T03:39:27;6.00;;;1.30;;
20144;SDS011;10233;50.814;6.590;2023-08-08T03:40:28;3.92;;;1.20;;
20144;SDS011;10233;50.814;6.590;2023-08-08T03:41:28;4.70;;;1.30;;
20144;SDS011;10233;50.814;6.590;2023-08-08T03:42:29;4.05;;;1.15;;
20144;SDS011;10233;50.814;6.590;2023-08-08T03:43:31;3.38;;;1.30;;
20144;SDS011;10233;50.814;6.590;2023-08-08T03:44:31;2.67;;;1.17;;
20144;SDS011;10233;50.814;6.590;2023-08-08T03:45:32;3.33;;;1.40;;
20144;SDS011;10233;50.814;6.590;2023-08-08T03:46:32;4.38;;;1.55;;
20144;SDS011;10233;50.814;6.590;2023-08-08T03:47:34;4.03;;;1.40;;
20144;SDS011;10233;50.814;6.590;2023-08-08T03:48:34;3.63;;;1.38;;
20144;SDS011;10233;50.814;6.590;2023-08-08T03:49:35;5.60;;;1.43;;
20144;SDS011;10233;50.814;6.590;2023-08-08T03:50:35;3.10;;;1.70;;
20144;SDS011;10233;50.814;6.590;2023-08-08T03:51:36;2.83;;;1.40;;
20144;SDS011;10233;50.814;6.590;2023-08-08T03:52:38;3.28;;;1.27;;
20144;SDS011;10233;50.814;6.590;2023-08-08T03:53:43;3.53;;;1.33;;
20144;SDS011;10233;50.814;6.590;2023-08-08T03:54:44;3.15;;;1.40;;
20144;SDS011;10233;50.814;6.590;2023-08-08T03:55:44;4.80;;;1.73;;
20144;SDS011;10233;50.814;6.590;2023-08-08T03:56:45;5.33;;;1.50;;
20144;SDS011;10233;50.814;6.590;2023-08-08T03:57:46;4.72;;;1.55;;
20144;SDS011;10233;50.814;6.590;2023-08-08T03:58:47;4.93;;;1.73;;
20144;SDS011;10233;50.814;6.590;2023-08-08T03:59:47;5.20;;;1.70;;
20144;SDS011;10233;50.814;6.590;2023-08-08T04:00:48;4.13;;;1.70;;
20144;SDS011;10233;50.814;6.590;2023-08-08T04:01:48;5.53;;;1.70;;
20144;SDS011;10233;50.814;6.590;2023-08-08T04:02:49;4.15;;;1.65;;
20144;SDS011;10233;50.814;6.590;2023-08-08T04:03:49;6.13;;;1.70;;
20144;SDS011;10233;50.814;6.590;2023-08-08T04:04:50;4.27;;;1.60;;
20144;SDS011;10233;50.814;6.590;2023-08-08T04:05:50;4.47;;;1.70;;
20144;SDS011;10233;50.814;6.590;2023-08-08T04:06:51;5.07;;;1.80;;
20144;SDS011;10233;50.814;6.590;2023-08-08T04:07:51;3.65;;;1.83;;
20144;SDS011;10233;50.814;6.590;2023-08-08T04:08:51;4.00;;;1.80;;
20144;SDS011;10233;50.814;6.590;2023-08-08T04:09:52;4.75;;;1.77;;
20144;SDS011;10233;50.814;6.590;2023-08-08T04:10:55;3.90;;;1.77;;
20144;SDS011;10233;50.814;6.590;2023-08-08T04:11:55;6.47;;;1.80;;
20144;SDS011;10233;50.814;6.590;2023-08-08T04:12:56;5.78;;;1.95;;
20144;SDS011;10233;50.814;6.590;2023-08-08T04:13:57;7.23;;;1.87;;
20144;SDS011;10233;50.814;6.590;2023-08-08T04:14:58;5.70;;;2.30;;
20144;SDS011;10233;50.814;6.590;2023-08-08T04:16:00;4.60;;;1.80;;
20144;SDS011;10233;50.814;6.590;2023-08-08T04:17:00;5.63;;;1.90;;
20144;SDS011;10233;50.814;6.590;2023-08-08T04:18:03;5.10;;;2.08;;
20144;SDS011;10233;50.814;6.590;2023-08-08T04:19:06;4.82;;;1.60;;
20144;SDS011;10233;50.814;6.590;2023-08-08T04:20:07;6.18;;;2.15;;
20144;SDS011;10233;50.814;6.590;2023-08-08T04:21:07;3.65;;;1.95;;
20144;SDS011;10233;50.814;6.590;2023-08-08T04:22:08;5.30;;;2.40;;
20144;SDS011;10233;50.814;6.590;2023-08-08T04:23:08;7.27;;;2.33;;
20144;SDS011;10233;50.814;6.590;2023-08-08T04:24:09;4.07;;;2.17;;
20144;SDS011;10233;50.814;6.590;2023-08-08T04:25:09;7.07;;;2.03;;
20144;SDS011;10233;50.814;6.590;2023-08-08T04:26:10;6.88;;;2.45;;
20144;SDS011;10233;50.814;6.590;2023-08-08T04:27:10;5.53;;;2.30;;
20144;SDS011;10233;50.814;6.590;2023-08-08T04:28:11;4.20;;;2.30;;
20144;SDS011;10233;50.814;6.590;2023-08-08T04:29:11;7.65;;;2.33;;
20144;SDS011;10233;50.814;6.590;2023-08-08T04:30:11;4.93;;;2.27;;
20144;SDS011;10233;50.814;6.590;2023-08-08T04:31:12;5.40;;;2.10;;
20144;SDS011;10233;50.814;6.590;2023-08-08T04:32:14;5.90;;;2.42;;
20144;SDS011;10233;50.814;6.590;2023-08-08T04:33:14;5.30;;;2.22;;
20144;SDS011;10233;50.814;6.590;2023-08-08T04:34:15;6.80;;;2.53;;
20144;SDS011;10233;50.814;6.590;2023-08-08T04:35:17;4.13;;;2.10;;
20144;SDS011;10233;50.814;6.590;2023-08-08T04:36:17;7.00;;;2.15;;
20144;SDS011;10233;50.814;6.590;2023-08-08T04:37:18;8.10;;;2.60;;
20144;SDS011;10233;50.814;6.590;2023-08-08T04:38:18;6.35;;;2.30;;
20144;SDS011;10233;50.814;6.590;2023-08-08T04:39:19;5.50;;;2.20;;
20144;SDS011;10233;50.814;6.590;2023-08-08T04:40:19;4.95;;;2.30;;
20144;SDS011;10233;50.814;6.590;2023-08-08T04:41:20;4.93;;;2.80;;
20144;SDS011;10233;50.814;6.590;2023-08-08T04:42:20;5.13;;;2.37;;
20144;SDS011;10233;50.814;6.590;2023-08-08T04:43:21;6.75;;;2.50;;
20144;SDS011;10233;50.814;6.590;2023-08-08T04:44:21;5.30;;;2.30;;
20144;SDS011;10233;50.814;6.590;2023-08-08T04:45:22;9.07;;;2.50;;
20144;SDS011;10233;50.814;6.590;2023-08-08T04:46:22;10.73;;;2.60;;
20144;SDS011;10233;50.814;6.590;2023-08-08T04:47:22;6.07;;;2.50;;
20144;SDS011;10233;50.814;6.590;2023-08-08T04:48:23;7.10;;;2.50;;
20144;SDS011;10233;50.814;6.590;2023-08-08T04:49:23;5.93;;;2.40;;
20144;SDS011;10233;50.814;6.590;2023-08-08T04:50:24;9.38;;;2.72;;
20144;SDS011;10233;50.814;6.590;2023-08-08T04:51:24;8.10;;;2.93;;
20144;SDS011;10233;50.814;6.590;2023-08-08T04:52:25;6.93;;;2.90;;
20144;SDS011;10233;50.814;6.590;2023-08-08T04:53:25;7.25;;;2.60;;
20144;SDS011;10233;50.814;6.590;2023-08-08T04:54:26;5.50;;;2.40;;
20144;SDS011;10233;50.814;6.590;2023-08-08T04:55:26;6.88;;;2.70;;
20144;SDS011;10233;50.814;6.590;2023-08-08T04:56:27;5.63;;;2.53;;
20144;SDS011;10233;50.814;6.590;2023-08-08T04:57:28;7.90;;;2.90;;
20144;SDS011;10233;50.814;6.590;2023-08-08T04:58:28;6.77;;;2.80;;
20144;SDS011;10233;50.814;6.590;2023-08-08T04:59:29;9.90;;;2.90;;
20144;SDS011;10233;50.814;6.590;2023-08-08T05:00:30;4.53;;;2.50;;
20144;SDS011;10233;50.814;6.590;2023-08-08T05:01:30;8.37;;;3.13;;
20144;SDS011;10233;50.814;6.590;2023-08-08T05:02:30;7.78;;;2.88;;
20144;SDS011;10233;50.814;6.590;2023-08-08T05:03:31;6.03;;;2.63;;
20144;SDS011;10233;50.814;6.590;2023-08-08T05:04:32;8.15;;;2.53;;
20144;SDS011;10233;50.814;6.590;2023-08-08T05:05:32;7.67;;;2.70;;
20144;SDS011;10233;50.814;6.590;2023-08-08T05:06:33;5.82;;;2.42;;
20144;SDS011;10233;50.814;6.590;2023-08-08T05:07:33;6.27;;;2.77;;
20144;SDS011;10233;50.814;6.590;2023-08-08T05:08:36;6.10;;;2.28;;
20144;SDS011;10233;50.814;6.590;2023-08-08T05:09:36;4.53;;;2.27;;
20144;SDS011;10233;50.814;6.590;2023-08-08T05:10:37;7.18;;;2.60;;
20144;SDS011;10233;50.814;6.590;2023-08-08T05:11:37;6.50;;;2.40;;
20144;SDS011;10233;50.814;6.590;2023-08-08T05:12:38;7.43;;;2.37;;
20144;SDS011;10233;50.814;6.590;2023-08-08T05:13:39;6.28;;;2.45;;
20144;SDS011;10233;50.814;6.590;2023-08-08T05:14:40;8.33;;;2.60;;
20144;SDS011;10233;50.814;6.590;2023-08-08T05:15:41;6.63;;;2.40;;
20144;SDS011;10233;50.814;6.590;2023-08-08T05:16:41;8.30;;;2.80;;
20144;SDS011;10233;50.814;6.590;2023-08-08T05:17:42;12.43;;;3.10;;
20144;SDS011;10233;50.814;6.590;2023-08-08T05:18:42;5.43;;;2.42;;
20144;SDS011;10233;50.814;6.590;2023-08-08T05:19:45;5.20;;;2.20;;
20144;SDS011;10233;50.814;6.590;2023-08-08T05:20:45;6.18;;;2.28;;
20144;SDS011;10233;50.814;6.590;2023-08-08T05:21:46;8.77;;;2.57;;
20144;SDS011;10233;50.814;6.590;2023-08-08T05:22:47;6.13;;;2.50;;
20144;SDS011;10233;50.814;6.590;2023-08-08T05:23:47;7.93;;;2.50;;
20144;SDS011;10233;50.814;6.590;2023-08-08T05:24:48;6.13;;;2.40;;
20144;SDS011;10233;50.814;6.590;2023-08-08T05:25:48;6.97;;;2.60;;
20144;SDS011;10233;50.814;6.590;2023-08-08T05:26:49;8.48;;;2.58;;
20144;SDS011;10233;50.814;6.590;2023-08-08T05:27:49;4.90;;;2.40;;
20144;SDS011;10233;50.814;6.590;2023-08-08T05:28:50;7.07;;;2.70;;
20144;SDS011;10233;50.814;6.590;2023-08-08T05:29:50;8.00;;;2.55;;
20144;SDS011;10233;50.814;6.590;2023-08-08T05:30:50;6.47;;;2.10;;
20144;SDS011;10233;50.814;6.590;2023-08-08T05:31:51;6.35;;;2.25;;
20144;SDS011;10233;50.814;6.590;2023-08-08T05:32:52;5.43;;;2.30;;
20144;SDS011;10233;50.814;6.590;2023-08-08T05:33:53;6.25;;;2.40;;
20144;SDS011;10233;50.814;6.590;2023-08-08T05:34:53;7.93;;;2.33;;
20144;SDS011;10233;50.814;6.590;2023-08-08T05:35:55;4.30;;;2.38;;
20144;SDS011;10233;50.814;6.590;2023-08-08T05:36:55;4.53;;;2.20;;
20144;SDS011;10233;50.814;6.590;2023-08-08T05:37:56;4.43;;;2.23;;
20144;SDS011;10233;50.814;6.590;2023-08-08T05:38:56;5.43;;;2.40;;
20144;SDS011;10233;50.814;6.590;2023-08-08T05:39:57;6.93;;;2.43;;
20144;SDS011;10233;50.814;6.590;2023-08-08T05:40:57;8.17;;;2.33;;
20144;SDS011;10233;50.814;6.590;2023-08-08T05:41:58;5.32;;;2.60;;
20144;SDS011;10233;50.814;6.590;2023-08-08T05:42:58;7.83;;;2.60;;
20144;SDS011;10233;50.814;6.590;2023-08-08T05:43:59;5.60;;;2.38;;
20144;SDS011;10233;50.814;6.590;2023-08-08T05:44:59;5.10;;;2.37;;
20144;SDS011;10233;50.814;6.590;2023-08-08T05:46:00;4.63;;;2.37;;
20144;SDS011;10233;50.814;6.590;2023-08-08T05:47:00;5.60;;;2.20;;
20144;SDS011;10233;50.814;6.590;2023-08-08T05:48:01;5.10;;;2.60;;
20144;SDS011;10233;50.814;6.590;2023-08-08T05:49:01;7.10;;;2.28;;
20144;SDS011;10233;50.814;6.590;2023-08-08T05:50:02;5.33;;;2.47;;
20144;SDS011;10233;50.814;6.590;2023-08-08T05:51:02;5.63;;;2.40;;
20144;SDS011;10233;50.814;6.590;2023-08-08T05:52:05;5.05;;;2.50;;
20144;SDS011;10233;50.814;6.590;2023-08-08T05:53:06;3.53;;;1.90;;
20144;SDS011;10233;50.814;6.590;2023-08-08T05:54:07;7.30;;;2.45;;
20144;SDS011;10233;50.814;6.590;2023-08-08T05:55:07;5.67;;;2.27;;
20144;SDS011;10233;50.814;6.590;2023-08-08T05:56:08;7.28;;;2.70;;
20144;SDS011;10233;50.814;6.590;2023-08-08T05:57:09;9.73;;;2.40;;
20144;SDS011;10233;50.814;6.590;2023-08-08T05:58:09;6.67;;;2.13;;
20144;SDS011;10233;50.814;6.590;2023-08-08T05:59:09;6.47;;;2.20;;
20144;SDS011;10233;50.814;6.590;2023-08-08T06:00:10;5.95;;;2.20;;
20144;SDS011;10233;50.814;6.590;2023-08-08T06:01:13;6.18;;;2.67;;
20144;SDS011;10233;50.814;6.590;2023-08-08T06:02:14;6.65;;;2.17;;
20144;SDS011;10233;50.814;6.590;2023-08-08T06:03:14;3.40;;;2.10;;
20144;SDS011;10233;50.814;6.590;2023-08-08T06:04:15;6.03;;;1.90;;
20144;SDS011;10233;50.814;6.590;2023-08-08T06:05:19;5.35;;;1.90;;
20144;SDS011;10233;50.814;6.590;2023-08-08T06:06:21;4.32;;;1.98;;
20144;SDS011;10233;50.814;6.590;2023-08-08T06:07:22;5.10;;;1.90;;
20144;SDS011;10233;50.814;6.590;2023-08-08T06:08:22;5.85;;;1.90;;
20144;SDS011;10233;50.814;6.590;2023-08-08T06:09:23;4.23;;;1.60;;